Time;durP1;ratioP1;P1;durP2;ratioP2;P2;SDS_P1;SDS_P2;PMS_P1;PMS_P2;Temp;Humidity;BMP_temperature;BMP_pressure;BME280_temperature;BME280_humidity;BME280_pressure;Samples;Min_cycle;Max_cycle;Signal;HPM_P1;HPM_P2
2022/12/29 00:01:10;;;;;;;4.25;3.90;;;;;;;9.18;100.00;100134.41;5268629;28;20084;-65
2022/12/29 00:03:40;;;;;;;4.55;4.25;;;;;;;9.19;100.00;100133.34;5268203;28;20031;-64
2022/12/29 00:06:11;;;;;;;4.05;3.75;;;;;;;9.16;100.00;100122.28;5268376;28;20417;-64
2022/12/29 00:08:41;;;;;;;3.97;3.70;;;;;;;9.21;100.00;100120.41;5268496;28;20049;-64
2022/12/29 00:11:17;;;;;;;3.20;3.05;;;;;;;9.22;100.00;100121.22;5268658;28;20027;-64
2022/12/29 00:16:40;;;;;;;3.70;3.17;;;;;;;9.29;100.00;100111.00;5268581;28;20072;-64
2022/12/29 00:36:20;;;;;;;6.65;2.67;;;;;;;9.53;100.00;100114.03;5268389;28;20084;-63
2022/12/29 00:44:45;;;;;;;3.08;2.85;;;;;;;9.53;100.00;100089.78;5235696;28;20028;-63
2022/12/29 00:47:15;;;;;;;2.03;1.92;;;;;;;9.50;100.00;100069.56;5266557;28;20030;-63
2022/12/29 00:49:45;;;;;;;2.15;2.15;;;;;;;9.57;100.00;100080.06;5267418;28;20016;-66
2022/12/29 00:52:16;;;;;;;2.40;2.30;;;;;;;9.61;100.00;100081.13;5266926;28;20034;-64
2022/12/29 00:54:46;;;;;;;2.65;2.47;;;;;;;9.56;100.00;100063.06;5267135;28;20024;-64
2022/12/29 00:57:17;;;;;;;2.97;2.75;;;;;;;9.63;100.00;100085.19;5267351;28;20024;-64
2022/12/29 00:59:47;;;;;;;2.65;2.40;;;;;;;9.68;100.00;100071.72;5267236;28;20024;-64
2022/12/29 01:02:18;;;;;;;2.53;2.42;;;;;;;9.28;100.00;100001.59;5266574;28;20057;-63
2022/12/29 01:04:48;;;;;;;2.40;2.30;;;;;;;9.72;100.00;100062.00;5266936;28;20136;-67
2022/12/29 01:07:19;;;;;;;4.50;2.03;;;;;;;9.72;100.00;100055.81;5267119;28;20021;-64
2022/12/29 01:12:41;;;;;;;3.08;2.10;;;;;;;9.80;100.00;100052.59;5266617;28;20145;-64
2022/12/29 01:15:14;;;;;;;4.90;2.70;;;;;;;9.85;100.00;100055.25;5266845;28;20484;-65
2022/12/29 01:17:44;;;;;;;2.53;2.28;;;;;;;9.87;100.00;100047.69;5265682;28;20106;-64
2022/12/29 01:20:15;;;;;;;2.03;1.92;;;;;;;9.86;100.00;100038.00;5265572;28;20107;-64
2022/12/29 01:22:45;;;;;;;2.65;2.35;;;;;;;9.89;100.00;100040.16;5266079;28;20119;-64
2022/12/29 01:25:16;;;;;;;4.50;2.83;;;;;;;9.94;100.00;100050.13;5266406;28;20024;-64
2022/12/29 01:27:46;;;;;;;2.95;2.70;;;;;;;9.87;100.00;100036.09;5266769;28;20081;-64
2022/12/29 01:30:16;;;;;;;2.13;2.03;;;;;;;9.86;100.00;100034.50;5266775;28;20016;-64
2022/12/29 01:32:47;;;;;;;1.75;1.67;;;;;;;9.83;100.00;100055.53;5266595;28;20106;-64
2022/12/29 01:35:17;;;;;;;2.90;2.65;;;;;;;9.82;100.00;100066.56;5266611;28;20091;-64
2022/12/29 01:37:47;;;;;;;3.28;1.90;;;;;;;9.87;100.00;100071.16;5266438;28;20027;-64
2022/12/29 01:40:18;;;;;;;2.45;2.30;;;;;;;9.90;100.00;100057.13;5265356;28;20529;-64
2022/12/29 01:42:48;;;;;;;4.30;2.95;;;;;;;9.91;100.00;100037.19;5266244;28;20041;-65
2022/12/29 01:45:20;;;;;;;5.80;2.63;;;;;;;9.90;100.00;100059.84;5266455;28;20111;-64
2022/12/29 01:47:54;;;;;;;4.70;2.58;;;;;;;9.82;100.00;100051.19;5266907;28;20020;-65
2022/12/29 01:50:32;;;;;;;2.22;2.13;;;;;;;9.92;100.00;100061.19;5266669;28;20060;-64
2022/12/29 01:53:09;;;;;;;2.40;2.30;;;;;;;9.91;100.00;100066.84;5266396;28;20024;-66
2022/12/29 01:55:44;;;;;;;2.88;2.30;;;;;;;9.90;100.00;100063.34;5266654;28;20464;-65
2022/12/29 01:58:17;;;;;;;3.15;2.15;;;;;;;9.87;100.00;100073.84;5268149;28;20028;-65
2022/12/29 02:00:47;;;;;;;2.97;2.75;;;;;;;9.83;100.00;100068.19;5270661;28;20020;-64
2022/12/29 02:03:21;;;;;;;2.63;2.50;;;;;;;9.80;100.00;100069.56;5270571;28;20380;-65
2022/12/29 02:05:51;;;;;;;2.85;2.45;;;;;;;9.77;100.00;100080.88;5270591;28;20032;-65
2022/12/29 02:08:25;;;;;;;2.40;2.20;;;;;;;9.70;100.00;100063.34;5270947;28;20074;-64
2022/12/29 02:10:59;;;;;;;1.73;1.73;;;;;;;9.71;100.00;100067.66;5270452;28;20038;-65
2022/12/29 02:13:30;;;;;;;2.25;2.15;;;;;;;9.67;100.00;100072.78;5269794;28;20027;-64
2022/12/29 02:16:26;;;;;;;2.30;2.20;;;;;;;9.61;100.00;100064.97;5270425;28;20024;-65
2022/12/29 02:19:24;;;;;;;4.28;2.22;;;;;;;9.55;100.00;100060.63;5268945;28;20054;-64
2022/12/29 02:22:21;;;;;;;1.88;1.77;;;;;;;9.53;100.00;100038.56;5269670;28;20103;-65
2022/12/29 02:25:09;;;;;;;2.95;2.75;;;;;;;9.52;100.00;100058.50;5261252;28;20064;-64
2022/12/29 02:28:04;;;;;;;2.38;2.28;;;;;;;9.52;100.00;100045.03;5270349;28;20028;-64
2022/12/29 02:30:46;;;;;;;2.33;2.22;;;;;;;9.48;100.00;100050.16;5270326;28;20055;-64
2022/12/29 02:34:08;;;;;;;3.03;2.83;;;;;;;9.46;100.00;100026.16;5268354;28;20031;-64
2022/12/29 02:37:12;;;;;;;2.53;2.42;;;;;;;9.43;100.00;100042.06;5235761;28;20487;-64
2022/12/29 02:40:05;;;;;;;2.75;2.58;;;;;;;9.41;100.00;100039.63;5268925;28;20092;-64
2022/12/29 02:42:54;;;;;;;2.88;2.30;;;;;;;9.42;100.00;100032.34;5269259;28;20036;-65
2022/12/29 02:45:43;;;;;;;2.70;2.50;;;;;;;9.40;100.00;100045.28;5268423;28;20119;-63
2022/12/29 02:48:14;;;;;;;3.08;2.80;;;;;;;9.36;100.00;100034.22;5269807;28;20035;-64
2022/12/29 02:50:57;;;;;;;1.88;1.88;;;;;;;9.32;100.00;100051.19;5269479;28;20024;-63
2022/12/29 02:56:18;;;;;;;8.18;3.75;;;;;;;9.13;100.00;100027.47;5269984;28;20050;-63
2022/12/29 02:58:49;;;;;;;4.55;2.08;;;;;;;9.07;100.00;100016.94;5269594;28;20016;-63
2022/12/29 03:01:38;;;;;;;2.83;2.63;;;;;;;9.00;100.00;100017.19;5269325;28;20020;-64
2022/12/29 03:04:31;;;;;;;2.58;2.47;;;;;;;8.95;100.00;100040.63;5267352;28;20028;-64
2022/12/29 03:07:21;;;;;;;2.33;1.83;;;;;;;8.73;100.00;100006.63;5269169;28;20027;-63
2022/12/29 03:09:57;;;;;;;;;;;;;;;8.81;100.00;100013.38;5268601;28;20407;-64
2022/12/29 03:18:29;;;;;;;2.33;2.22;;;;;;;8.64;100.00;100024.38;5269442;28;20101;-65
2022/12/29 03:21:07;;;;;;;4.75;2.30;;;;;;;8.62;100.00;100021.13;5267940;28;20024;-65
2022/12/29 03:23:42;;;;;;;2.50;2.00;;;;;;;8.53;100.00;100014.63;5278687;22;20102;-68
2022/12/29 03:26:16;;;;;;;5.25;3.22;;;;;;;8.57;100.00;100023.00;5255209;28;20027;-68
2022/12/29 03:28:54;;;;;;;2.30;2.20;;;;;;;8.54;100.00;100020.81;5247121;28;20032;-68
2022/12/29 03:31:25;;;;;;;1.98;1.88;;;;;;;8.49;100.00;100027.00;5247071;28;20100;-68
2022/12/29 03:33:57;;;;;;;2.78;2.58;;;;;;;8.45;100.00;100015.94;5246518;28;20056;-68
2022/12/29 03:36:36;;;;;;;2.10;2.00;;;;;;;8.57;100.00;100033.75;5247030;28;20059;-68
2022/12/29 03:39:11;;;;;;;2.70;2.50;;;;;;;8.53;100.00;100044.22;5246957;28;20436;-68
2022/12/29 03:41:44;;;;;;;4.72;1.98;;;;;;;8.50;100.00;100041.25;5228655;28;20117;-69
2022/12/29 03:44:15;;;;;;;2.38;2.20;;;;;;;8.44;100.00;100046.59;5246407;28;20111;-68
2022/12/29 03:46:45;;;;;;;2.42;2.33;;;;;;;8.36;100.00;100049.00;5246743;28;20111;-68
2022/12/29 03:49:15;;;;;;;5.63;2.85;;;;;;;8.26;100.00;100054.28;5246716;28;20075;-68
2022/12/29 03:51:46;;;;;;;2.67;2.20;;;;;;;8.20;100.00;100052.63;5246368;28;20036;-68
2022/12/29 03:54:16;;;;;;;3.03;2.83;;;;;;;8.17;100.00;100058.53;5246093;28;20030;-68
2022/12/29 03:56:46;;;;;;;8.45;2.53;;;;;;;8.14;100.00;100063.34;5246663;28;20020;-68
2022/12/29 03:59:17;;;;;;;2.65;2.45;;;;;;;8.09;100.00;100067.88;5246573;28;20098;-68
2022/12/29 04:01:47;;;;;;;2.40;2.20;;;;;;;8.10;100.00;100058.75;5246203;28;20028;-68
2022/12/29 04:04:18;;;;;;;7.60;2.75;;;;;;;8.22;100.00;100058.56;5246088;28;20434;-68
2022/12/29 04:06:48;;;;;;;6.20;3.13;;;;;;;8.29;100.00;100061.84;5246143;28;20050;-67
2022/12/29 04:09:18;;;;;;;6.95;2.78;;;;;;;8.31;100.00;100046.25;5246306;28;20076;-67
2022/12/29 04:11:49;;;;;;;7.35;4.50;;;;;;;8.23;100.00;100061.00;5245972;28;20396;-67
2022/12/29 04:14:19;;;;;;;4.07;2.85;;;;;;;8.19;100.00;100042.94;5228196;28;20051;-67
2022/12/29 04:16:49;;;;;;;3.25;3.03;;;;;;;7.98;100.00;100021.31;5228628;28;20089;-68
2022/12/29 04:19:20;;;;;;;4.15;3.22;;;;;;;8.02;100.00;100064.63;5246198;28;20028;-67
2022/12/29 04:21:50;;;;;;;8.52;3.28;;;;;;;7.94;100.00;100046.28;5245644;28;20017;-67
2022/12/29 04:24:20;;;;;;;6.57;2.95;;;;;;;7.98;100.00;100077.78;5245493;28;20058;-68
2022/12/29 04:26:51;;;;;;;2.85;2.63;;;;;;;7.97;100.00;100072.66;5245788;28;20460;-68
2022/12/29 04:29:21;;;;;;;3.75;2.47;;;;;;;8.01;100.00;100079.94;5245845;28;20029;-68
2022/12/29 04:31:52;;;;;;;4.22;2.58;;;;;;;8.01;100.00;100084.50;5245701;28;20031;-67
2022/12/29 04:34:22;;;;;;;4.80;2.60;;;;;;;7.91;100.00;100085.22;5245664;28;20104;-67
2022/12/29 04:36:52;;;;;;;4.72;2.65;;;;;;;7.93;100.00;100087.66;5245804;28;20017;-67
2022/12/29 04:39:23;;;;;;;4.65;2.22;;;;;;;7.86;100.00;100081.69;5245619;28;20767;-67
2022/12/29 04:41:53;;;;;;;3.42;2.53;;;;;;;7.87;100.00;100091.38;5245289;28;20020;-69
2022/12/29 04:44:23;;;;;;;3.08;2.83;;;;;;;7.90;100.00;100099.75;5245635;28;20020;-68
2022/12/29 04:46:54;;;;;;;5.15;2.83;;;;;;;7.93;100.00;100107.31;5245642;28;20118;-68
2022/12/29 04:49:24;;;;;;;4.63;2.33;;;;;;;8.00;100.00;100096.34;5245769;28;20388;-68
2022/12/29 04:51:54;;;;;;;6.90;2.88;;;;;;;8.10;100.00;100107.13;5244920;28;20185;-67
2022/12/29 04:54:25;;;;;;;2.38;2.28;;;;;;;8.21;100.00;100105.34;5245380;28;20389;-67
2022/12/29 04:56:55;;;;;;;3.00;2.70;;;;;;;8.30;100.00;100119.94;5245579;28;20013;-66
2022/12/29 04:59:25;;;;;;;3.03;2.92;;;;;;;8.34;100.00;100113.81;5245404;28;20020;-67
2022/12/29 05:01:56;;;;;;;2.20;2.10;;;;;;;8.42;100.00;100120.56;5244993;28;20020;-67
2022/12/29 05:04:26;;;;;;;2.97;2.70;;;;;;;8.49;100.00;100114.97;5245160;28;20021;-70
2022/12/29 05:06:57;;;;;;;2.72;2.55;;;;;;;8.53;100.00;100108.81;5245184;28;20105;-68
2022/12/29 05:09:27;;;;;;;7.65;2.65;;;;;;;8.56;100.00;100113.69;5245299;28;20048;-67
2022/12/29 05:11:57;;;;;;;3.53;3.22;;;;;;;8.60;100.00;100109.41;5244854;28;20027;-66
2022/12/29 05:14:28;;;;;;;10.30;3.65;;;;;;;8.64;100.00;100105.13;5244950;28;20017;-67
2022/12/29 05:16:58;;;;;;;2.83;2.63;;;;;;;8.67;100.00;100118.03;5245268;28;20173;-66
2022/12/29 05:19:28;;;;;;;4.47;2.95;;;;;;;8.64;100.00;100093.53;5245290;28;20490;-67
2022/12/29 05:21:59;;;;;;;4.35;2.78;;;;;;;8.66;100.00;100096.78;5226834;28;20141;-67
2022/12/29 05:24:30;;;;;;;2.20;2.03;;;;;;;8.51;100.00;100072.47;5245432;28;20025;-69
2022/12/29 05:27:00;;;;;;;2.20;2.10;;;;;;;8.67;100.00;100096.50;5244887;28;20020;-67
2022/12/29 05:29:30;;;;;;;6.53;3.13;;;;;;;8.68;100.00;100108.06;5245111;28;20035;-67
2022/12/29 05:32:01;;;;;;;5.88;3.25;;;;;;;8.69;100.00;100105.13;5244786;28;20070;-67
2022/12/29 05:34:31;;;;;;;2.38;2.25;;;;;;;8.69;100.00;100123.97;5244458;28;20077;-65
2022/12/29 05:37:02;;;;;;;2.90;2.67;;;;;;;8.69;100.00;100109.69;5244878;28;20020;-65
2022/12/29 05:39:33;;;;;;;2.80;2.70;;;;;;;8.65;100.00;100106.75;5227032;28;20442;-65
2022/12/29 05:42:03;;;;;;;2.30;2.20;;;;;;;8.66;100.00;100116.41;5244627;28;20111;-66
2022/12/29 05:44:33;;;;;;;6.53;3.25;;;;;;;8.68;100.00;100108.88;5245132;28;20055;-65
2022/12/29 05:47:04;;;;;;;5.88;3.88;;;;;;;8.75;100.00;100111.34;5245171;28;20464;-65
2022/12/29 05:49:34;;;;;;;3.70;3.20;;;;;;;8.75;100.00;100116.72;5245761;28;20078;-66
2022/12/29 05:52:05;;;;;;;3.70;3.50;;;;;;;8.71;100.00;100102.97;5244846;28;20488;-66
2022/12/29 05:54:35;;;;;;;6.65;3.28;;;;;;;8.77;100.00;100115.38;5227115;28;20028;-70
2022/12/29 05:57:05;;;;;;;3.15;2.58;;;;;;;8.77;100.00;100133.41;5245265;28;20052;-67
2022/12/29 05:59:36;;;;;;;4.05;3.63;;;;;;;8.78;100.00;100121.59;5245314;28;20024;-67
2022/12/29 06:02:06;;;;;;;4.47;4.20;;;;;;;8.77;100.00;100126.16;5245018;28;20540;-67
2022/12/29 06:04:36;;;;;;;2.75;2.55;;;;;;;8.79;100.00;100125.91;5244951;28;20037;-66
2022/12/29 06:07:07;;;;;;;3.25;3.03;;;;;;;8.67;100.00;100106.44;5244962;28;20120;-66
2022/12/29 06:09:37;;;;;;;2.30;2.20;;;;;;;8.87;100.00;100140.75;5245173;28;20066;-66
2022/12/29 06:12:07;;;;;;;3.88;3.58;;;;;;;8.89;100.00;100125.97;5244950;28;20052;-66
2022/12/29 06:14:38;;;;;;;2.83;2.60;;;;;;;8.93;100.00;100128.94;5245061;28;20031;-66
2022/12/29 06:17:09;;;;;;;4.03;3.72;;;;;;;8.93;100.00;100134.31;5245026;28;20020;-69
2022/12/29 06:19:39;;;;;;;12.25;3.25;;;;;;;8.83;100.00;100129.69;5245053;28;20067;-67
2022/12/29 06:22:11;;;;;;;3.28;2.97;;;;;;;8.92;100.00;100141.59;5225276;28;20053;-65
2022/12/29 06:24:42;;;;;;;4.97;3.70;;;;;;;8.86;100.00;100115.72;5257357;28;20028;-67
2022/12/29 06:27:13;;;;;;;6.47;3.53;;;;;;;8.99;100.00;100144.03;5265290;28;20021;-67
2022/12/29 06:29:44;;;;;;;16.58;3.67;;;;;;;8.99;100.00;100139.44;5265369;28;20376;-67
2022/12/29 06:32:14;;;;;;;4.80;3.22;;;;;;;8.96;100.00;100141.84;5265013;28;20020;-66
2022/12/29 06:34:44;;;;;;;5.00;2.47;;;;;;;8.98;100.00;100147.78;5265248;28;20053;-69
2022/12/29 06:37:15;;;;;;;5.35;3.55;;;;;;;8.90;100.00;100137.53;5265436;28;20024;-66
2022/12/29 06:39:45;;;;;;;10.60;3.53;;;;;;;8.81;100.00;100150.69;5265413;28;20468;-71
2022/12/29 06:42:15;;;;;;;4.18;3.75;;;;;;;8.72;100.00;100147.66;5264818;28;20473;-70
2022/12/29 06:44:46;;;;;;;5.20;4.28;;;;;;;8.62;100.00;100153.00;5265913;28;20020;-67
2022/12/29 06:47:16;;;;;;;4.15;3.78;;;;;;;8.55;100.00;100168.56;5252807;28;20487;-67
2022/12/29 06:49:46;;;;;;;2.97;2.78;;;;;;;8.54;100.00;100166.13;5270366;28;20026;-67
2022/12/29 06:52:17;;;;;;;6.68;3.78;;;;;;;8.52;100.00;100173.66;5269126;28;20028;-67
2022/12/29 06:54:47;;;;;;;5.90;3.90;;;;;;;8.54;100.00;100183.09;5269339;28;20157;-66
2022/12/29 06:57:18;;;;;;;7.40;4.47;;;;;;;8.60;100.00;100175.88;5269620;28;20016;-66
2022/12/29 06:59:48;;;;;;;6.28;2.70;;;;;;;8.73;100.00;100151.16;5273308;28;20050;-71
2022/12/29 07:02:19;;;;;;;7.80;3.55;;;;;;;8.82;100.00;100167.66;5272221;28;20028;-68
2022/12/29 07:04:49;;;;;;;9.43;5.05;;;;;;;8.86;100.00;100163.38;5272590;28;20020;-66
2022/12/29 07:07:20;;;;;;;6.13;4.47;;;;;;;8.80;100.00;100151.75;5273014;28;20028;-67
2022/12/29 07:09:51;;;;;;;13.02;3.47;;;;;;;8.91;100.00;100152.63;5271777;28;20028;-70
2022/12/29 07:12:21;;;;;;;5.70;3.55;;;;;;;8.82;100.00;100154.19;5272437;28;20023;-68
2022/12/29 07:14:51;;;;;;;4.70;4.13;;;;;;;8.82;100.00;100183.78;5271083;28;20019;-66
2022/12/29 07:17:22;;;;;;;4.07;3.70;;;;;;;8.84;100.00;100165.50;5268796;28;20510;-66
2022/12/29 07:19:52;;;;;;;6.32;3.47;;;;;;;8.84;100.00;100166.31;5250423;28;20119;-66
2022/12/29 07:22:23;;;;;;;5.63;4.03;;;;;;;8.88;100.00;100186.25;5267967;28;20020;-66
2022/12/29 07:24:53;;;;;;;9.95;3.78;;;;;;;8.61;100.00;100148.69;5268109;28;20035;-66
2022/12/29 07:27:23;;;;;;;12.23;4.53;;;;;;;8.93;100.00;100172.03;5268104;28;20020;-71
2022/12/29 07:29:54;;;;;;;3.58;3.28;;;;;;;8.74;100.00;100164.38;5268060;28;20491;-68
2022/12/29 07:32:24;;;;;;;6.20;3.53;;;;;;;8.87;100.00;100191.91;5249354;28;20121;-69
2022/12/29 07:34:55;;;;;;;8.48;3.95;;;;;;;8.78;100.00;100184.31;5267691;28;20016;-66
2022/12/29 07:37:25;;;;;;;6.72;3.88;;;;;;;8.71;100.00;100186.41;5267966;28;20479;-66
2022/12/29 07:39:56;;;;;;;5.50;4.93;;;;;;;8.59;100.00;100183.13;5268010;28;20393;-65
2022/12/29 07:42:26;;;;;;;4.00;3.67;;;;;;;8.53;100.00;100181.47;5267148;28;20035;-65
2022/12/29 07:44:57;;;;;;;4.22;3.83;;;;;;;8.60;100.00;100206.28;5267484;28;20030;-66
2022/12/29 07:47:27;;;;;;;6.47;3.45;;;;;;;8.70;100.00;100211.72;5267729;28;20055;-66
2022/12/29 07:49:57;;;;;;;6.55;4.63;;;;;;;8.73;100.00;100199.63;5267730;28;20031;-65
2022/12/29 07:52:28;;;;;;;5.32;4.15;;;;;;;8.73;100.00;100215.78;5267141;28;20023;-66
2022/12/29 07:54:58;;;;;;;3.72;3.45;;;;;;;8.80;100.00;100210.97;5249069;28;20058;-65
2022/12/29 07:57:28;;;;;;;5.55;3.60;;;;;;;8.79;100.00;100201.28;5249091;28;20052;-65
2022/12/29 07:59:59;;;;;;;3.25;3.10;;;;;;;8.93;100.00;100224.00;5249447;28;20016;-65
2022/12/29 08:02:29;;;;;;;3.10;2.90;;;;;;;9.01;100.00;100222.66;5267058;28;20024;-68
2022/12/29 08:05:00;;;;;;;4.63;4.25;;;;;;;9.05;100.00;100213.00;5267036;28;20047;-66
2022/12/29 08:07:30;;;;;;;4.35;4.10;;;;;;;9.08;100.00;100212.47;5267120;28;20101;-66
2022/12/29 08:10:01;;;;;;;9.40;4.03;;;;;;;9.05;100.00;100218.38;5267309;28;20020;-66
2022/12/29 08:12:31;;;;;;;9.18;4.25;;;;;;;9.01;100.00;100211.91;5266804;28;20690;-66
2022/12/29 08:15:02;;;;;;;5.85;3.30;;;;;;;9.11;100.00;100212.78;5259983;28;20028;-68
2022/12/29 08:17:32;;;;;;;11.88;4.55;;;;;;;9.14;100.00;100193.41;5246202;28;20078;-68
2022/12/29 08:20:04;;;;;;;4.15;3.78;;;;;;;9.21;100.00;100222.78;5245723;28;20027;-67
2022/12/29 08:22:34;;;;;;;4.03;3.67;;;;;;;9.19;100.00;100200.69;5245714;28;20035;-71
2022/12/29 08:25:05;;;;;;;6.72;3.88;;;;;;;9.25;100.00;100207.69;5245690;28;20021;-67
2022/12/29 08:27:35;;;;;;;7.75;3.42;;;;;;;9.23;100.00;100220.66;5245881;28;20039;-66
2022/12/29 08:30:07;;;;;;;3.75;3.50;;;;;;;9.26;100.00;100201.25;5246001;28;20400;-66
2022/12/29 08:32:37;;;;;;;6.25;4.47;;;;;;;9.28;100.00;100214.44;5245102;28;20024;-66
2022/12/29 08:35:08;;;;;;;4.10;3.72;;;;;;;9.28;100.00;100206.38;5245615;28;20016;-66
2022/12/29 08:37:39;;;;;;;3.25;2.95;;;;;;;9.25;100.00;100214.97;5227950;28;20052;-66
2022/12/29 08:40:09;;;;;;;7.18;4.63;;;;;;;9.18;100.00;100206.34;5246216;28;20027;-70
2022/12/29 08:42:40;;;;;;;8.05;3.78;;;;;;;9.14;100.00;100206.88;5245567;28;20031;-66
2022/12/29 08:45:10;;;;;;;3.95;3.70;;;;;;;9.10;100.00;100194.97;5245120;28;20044;-66
2022/12/29 08:47:41;;;;;;;5.05;3.92;;;;;;;9.20;100.00;100226.56;5245506;28;20039;-66
2022/12/29 08:50:11;;;;;;;10.57;5.15;;;;;;;9.20;100.00;100242.72;5245513;28;20059;-66
2022/12/29 08:52:41;;;;;;;5.25;3.47;;;;;;;9.25;100.00;100220.34;5244931;28;20032;-71
2022/12/29 08:55:12;;;;;;;14.73;4.15;;;;;;;9.28;100.00;100244.91;5245347;28;20051;-70
2022/12/29 08:57:42;;;;;;;9.30;4.25;;;;;;;9.27;100.00;100240.56;5227078;28;20158;-67
2022/12/29 09:00:14;;;;;;;10.27;4.20;;;;;;;9.32;100.00;100256.78;5245439;28;20059;-66
2022/12/29 09:02:45;;;;;;;4.28;3.25;;;;;;;9.33;100.00;100247.63;5244815;28;20082;-65
2022/12/29 09:05:15;;;;;;;6.32;3.60;;;;;;;9.35;100.00;100247.34;5245482;28;20028;-67
2022/12/29 09:07:46;;;;;;;6.18;4.57;;;;;;;9.37;100.00;100254.09;5244505;28;20050;-70
2022/12/29 09:10:16;;;;;;;8.07;4.57;;;;;;;9.39;100.00;100243.88;5245004;28;20036;-65
2022/12/29 09:12:46;;;;;;;4.53;4.20;;;;;;;9.08;100.00;100223.25;5244697;28;20030;-66
2022/12/29 09:15:17;;;;;;;8.70;3.92;;;;;;;9.25;100.00;100276.94;5227210;28;20090;-71
2022/12/29 09:17:47;;;;;;;9.23;3.92;;;;;;;9.01;100.00;100247.72;5227030;28;20025;-66
2022/12/29 09:20:19;;;;;;;6.93;3.28;;;;;;;9.00;100.00;100289.19;5245210;28;20519;-68
2022/12/29 09:22:49;;;;;;;6.15;5.18;;;;;;;9.01;100.00;100290.81;5244600;28;20024;-68
2022/12/29 09:25:21;;;;;;;3.95;3.72;;;;;;;9.03;100.00;100294.06;5244957;28;20502;-66
2022/12/29 09:27:53;;;;;;;11.32;4.38;;;;;;;9.03;100.00;100295.94;5227326;28;20048;-67
2022/12/29 09:30:23;;;;;;;3.85;3.60;;;;;;;8.94;100.00;100281.34;5267967;23;20047;-66
2022/12/29 09:32:54;;;;;;;4.22;3.88;;;;;;;8.97;100.00;100299.66;5266460;28;20013;-65
2022/12/29 09:35:24;;;;;;;11.68;5.80;;;;;;;8.85;100.00;100286.41;5250544;28;20060;-64
2022/12/29 09:37:54;;;;;;;6.25;3.50;;;;;;;8.87;100.00;100310.38;5245566;28;20028;-64
2022/12/29 09:40:31;;;;;;;6.63;4.10;;;;;;;8.83;100.00;100325.41;5244320;28;20107;-63
2022/12/29 09:43:29;;;;;;;9.35;5.45;;;;;;;8.53;100.00;100297.19;5245461;28;20318;-65
2022/12/29 09:46:31;;;;;;;5.00;4.43;;;;;;;8.74;100.00;100328.56;5245855;28;20427;-64
2022/12/29 09:49:19;;;;;;;4.28;3.97;;;;;;;8.79;100.00;100339.38;5245984;28;20480;-65
2022/12/29 09:51:53;;;;;;;9.13;4.07;;;;;;;8.84;100.00;100349.41;5245416;28;20084;-64
2022/12/29 09:54:38;;;;;;;6.78;4.38;;;;;;;8.93;100.00;100352.44;5245635;28;20020;-65
2022/12/29 09:57:40;;;;;;;5.35;4.13;;;;;;;8.96;100.00;100360.78;5245957;28;20020;-63
2022/12/29 10:00:22;;;;;;;4.45;4.05;;;;;;;8.95;100.00;100377.22;5245847;28;20038;-65
2022/12/29 10:02:57;;;;;;;10.27;4.05;;;;;;;8.75;100.00;100346.34;5244973;28;20024;-64
2022/12/29 10:05:38;;;;;;;8.52;4.30;;;;;;;9.00;100.00;100369.16;5245521;28;20119;-64
2022/12/29 10:08:11;;;;;;;4.60;3.22;;;;;;;9.08;100.00;100377.59;5245785;28;20066;-64
2022/12/29 10:10:59;;;;;;;9.40;3.78;;;;;;;9.17;100.00;100377.13;5245845;28;20032;-64
2022/12/29 10:13:57;;;;;;;4.57;3.75;;;;;;;9.14;100.00;100389.22;5244974;28;20036;-65
2022/12/29 10:16:35;;;;;;;9.30;4.85;;;;;;;9.09;100.00;100386.47;5245990;28;20017;-64
2022/12/29 10:19:42;;;;;;;9.30;3.70;;;;;;;9.05;100.00;100390.75;5246943;28;20111;-65
2022/12/29 10:22:41;;;;;;;5.53;5.05;;;;;;;9.00;100.00;100399.59;5249284;28;20488;-64
2022/12/29 10:25:17;;;;;;;9.50;4.57;;;;;;;9.01;100.00;100395.03;5242512;28;20431;-64
2022/12/29 10:27:49;;;;;;;4.30;3.90;;;;;;;9.09;100.00;100402.66;5248044;28;20067;-64
2022/12/29 10:30:20;;;;;;;7.85;4.15;;;;;;;8.95;100.00;100390.69;5249900;28;20033;-64
2022/12/29 10:32:53;;;;;;;5.00;4.57;;;;;;;9.12;100.00;100408.34;5249004;28;20069;-64
2022/12/29 10:35:26;;;;;;;8.07;4.55;;;;;;;9.14;100.00;100405.38;5250092;28;20065;-63
2022/12/29 10:38:04;;;;;;;9.73;4.45;;;;;;;9.13;100.00;100423.44;5249886;28;20050;-64
2022/12/29 10:40:54;;;;;;;9.73;4.30;;;;;;;9.09;100.00;100430.41;5247106;28;20099;-63
2022/12/29 10:43:55;;;;;;;4.40;3.28;;;;;;;9.07;100.00;100429.84;5270168;28;20020;-64
2022/12/29 10:46:32;;;;;;;6.45;4.88;;;;;;;8.82;100.00;100431.50;5266886;28;20032;-64
2022/12/29 10:49:05;;;;;;;12.20;4.90;;;;;;;8.59;100.00;100429.91;5270140;28;20119;-63
2022/12/29 10:51:39;;;;;;;9.52;5.57;;;;;;;8.58;100.00;100447.13;5269503;28;20103;-65
2022/12/29 10:54:13;;;;;;;4.05;3.72;;;;;;;8.52;100.00;100446.25;5265998;28;20483;-65
2022/12/29 10:56:49;;;;;;;5.15;4.53;;;;;;;8.29;100.00;100409.66;5253985;28;20044;-64
2022/12/29 10:59:30;;;;;;;13.82;5.10;;;;;;;8.42;100.00;100448.81;5269633;28;20030;-65
2022/12/29 11:02:06;;;;;;;8.18;5.18;;;;;;;8.45;100.00;100451.81;5269191;28;20024;-65
2022/12/29 11:04:45;;;;;;;7.88;5.05;;;;;;;8.60;100.00;100453.88;5269171;28;20027;-63
2022/12/29 11:07:18;;;;;;;5.23;4.83;;;;;;;8.72;100.00;100449.16;5268548;28;20024;-64
2022/12/29 11:09:48;;;;;;;4.85;4.07;;;;;;;8.78;100.00;100429.31;5268351;28;20286;-65
2022/12/29 11:12:20;;;;;;;13.15;6.53;;;;;;;8.87;100.00;100432.34;5266368;28;20027;-64
2022/12/29 11:15:07;;;;;;;12.07;6.03;;;;;;;9.10;100.00;100463.53;5330388;22;20176;-91
2022/12/29 11:17:50;;;;;;;8.52;4.05;;;;;;;8.84;100.00;100395.16;5263270;28;20020;-90
2022/12/29 11:20:37;;;;;;;7.00;4.45;;;;;;;9.45;100.00;100469.22;5265722;28;20091;-91
2022/12/29 11:23:32;;;;;;;9.98;4.28;;;;;;;9.61;100.00;100467.44;5264220;28;20024;-91
2022/12/29 11:26:20;;;;;;;6.70;4.22;;;;;;;9.02;100.00;100372.41;5283120;28;20111;-93
2022/12/29 11:29:23;;;;;;;6.00;3.72;;;;;;;9.80;100.00;100474.06;5265207;28;20087;-90
2022/12/29 11:31:57;;;;;;;11.52;4.05;;;;;;;9.88;100.00;100475.44;5226414;28;20040;-90
2022/12/29 11:34:35;;;;;;;12.32;6.07;;;;;;;9.74;100.00;100447.31;5261518;28;20035;-90
2022/12/29 11:37:30;;;;;;;8.00;5.07;;;;;;;9.59;100.00;100436.41;5259451;28;20047;-90
2022/12/29 11:40:15;;;;;;;5.90;4.10;;;;;;;9.67;100.00;100454.81;5261706;28;20056;-90
2022/12/29 11:42:52;;;;;;;4.50;4.05;;;;;;;9.75;100.00;100481.28;5260444;28;20052;-90
2022/12/29 11:45:26;;;;;;;8.70;4.35;;;;;;;9.21;100.00;100394.41;5245325;28;20040;-91
2022/12/29 11:48:01;;;;;;;7.72;4.47;;;;;;;9.48;100.00;100428.28;5265544;28;20020;-92
2022/12/29 11:50:35;;;;;;;8.45;4.75;;;;;;;9.55;100.00;100448.78;5265428;28;20025;-93
2022/12/29 11:53:26;;;;;;;7.95;4.85;;;;;;;9.83;100.00;100494.28;5248128;28;20016;-93
2022/12/29 11:56:02;;;;;;;5.93;3.05;;;;;;;7.75;100.00;100194.50;5247207;28;20064;-91
2022/12/29 11:58:36;;;;;;;4.03;3.67;;;;;;;9.02;100.00;100372.41;5248707;28;20024;-91
2022/12/29 12:01:13;;;;;;;6.88;4.28;;;;;;;9.04;100.00;100389.13;5245084;28;20029;-92
2022/12/29 12:04:15;;;;;;;11.52;4.60;;;;;;;8.57;100.00;100352.13;5264103;28;20048;-95
2022/12/29 12:07:12;;;;;;;5.00;4.60;;;;;;;9.75;100.00;100502.88;5245803;28;20112;-92
2022/12/29 12:10:06;;;;;;;5.85;5.30;;;;;;;9.20;100.00;100431.31;5247882;28;20070;-93
2022/12/29 12:13:01;;;;;;;4.55;4.03;;;;;;;9.50;100.00;100529.63;5248091;28;20051;-93
2022/12/29 12:15:46;;;;;;;3.95;3.47;;;;;;;9.42;100.00;100506.66;5265952;28;20032;-93
2022/12/29 12:18:43;;;;;;;8.73;3.92;;;;;;;7.67;100.00;100229.06;5249785;28;20039;-93
2022/12/29 12:21:47;;;;;;;5.97;3.75;;;;;;;9.63;100.00;100505.72;5258024;28;20347;-91
2022/12/29 12:24:36;;;;;;;17.77;4.72;;;;;;;8.98;100.00;100417.09;5220764;28;20052;-90
2022/12/29 12:27:14;;;;;;;7.80;4.47;;;;;;;9.63;100.00;100511.13;5274523;28;20084;-90
2022/12/29 12:30:24;;;;;;;8.68;5.10;;;;;;;8.45;100.00;100321.84;5256031;28;20446;-91
2022/12/29 12:33:27;;;;;;;4.63;3.70;;;;;;;9.54;100.00;100517.25;5257422;28;20028;-91
2022/12/29 12:36:16;;;;;;;10.02;4.88;;;;;;;9.48;100.00;100514.53;5262050;23;20040;-67
2022/12/29 12:39:11;;;;;;;11.38;4.90;;;;;;;9.31;100.00;100484.19;5268329;28;20470;-70